createdAt,value
2018-10-11T08:01:30.754Z,101036.36
2018-10-11T08:06:52.550Z,101036.30
2018-10-11T08:11:54.576Z,101033.53
2018-10-11T08:17:03.560Z,101026.11
2018-10-11T08:22:18.210Z,101025.67
2018-10-11T08:27:14.191Z,101021.47
2018-10-11T08:32:22.402Z,101027.61
2018-10-11T08:37:29.380Z,101036.42
2018-10-11T08:43:02.814Z,101027.05
2018-10-11T08:48:05.480Z,101033.02
2018-10-11T08:53:10.980Z,101034.22
2018-10-11T08:58:19.107Z,101029.23
2018-10-11T09:03:45.750Z,101022.66
2018-10-11T09:08:46.733Z,101031.05
2018-10-11T09:13:42.267Z,101026.62
2018-10-11T09:18:50.208Z,101026.45
2018-10-11T09:23:52.344Z,101017.45
2018-10-11T09:28:48.586Z,101019.77
2018-10-11T09:33:52.697Z,101013.74
2018-10-11T09:38:51.960Z,101015.62
2018-10-11T09:43:49.022Z,101008.61
2018-10-11T09:48:48.990Z,101010.02
2018-10-11T09:53:47.570Z,101006.84
2018-10-11T09:58:46.213Z,101004.70
2018-10-11T10:03:49.140Z,100999.10
2018-10-11T10:08:50.342Z,101002.28
2018-10-11T10:13:45.439Z,101001.27
2018-10-11T10:18:44.496Z,101002.05
2018-10-11T10:23:42.943Z,101000.39
2018-10-11T10:28:41.849Z,101003.72
2018-10-11T10:33:46.006Z,100987.09
2018-10-11T10:38:43.835Z,100987.55
2018-10-11T10:43:42.594Z,100977.19
2018-10-11T10:48:41.576Z,100969.20
2018-10-11T10:53:40.245Z,100964.62
2018-10-11T10:58:36.325Z,100962.91
2018-10-11T11:03:32.339Z,100950.88
2018-10-11T11:08:31.516Z,100953.06
2018-10-11T11:13:27.147Z,100942.23
2018-10-11T11:18:24.402Z,100938.97
2018-10-11T11:23:20.552Z,100938.84
2018-10-11T11:28:14.369Z,100925.47
2018-10-11T11:33:11.981Z,100918.72
2018-10-11T11:38:05.901Z,100919.80
2018-10-11T11:43:00.794Z,100918.47
2018-10-11T11:47:55.422Z,100922.54
2018-10-11T11:52:52.516Z,100924.58
2018-10-11T11:57:49.492Z,100923.30
2018-10-11T12:02:43.069Z,100915.55
2018-10-11T12:07:40.614Z,100918.64
2018-10-11T12:12:36.598Z,100916.83
2018-10-11T12:17:33.637Z,100918.36
2018-10-11T12:22:27.814Z,100919.53
2018-10-11T12:27:25.196Z,100912.78
2018-10-11T12:32:23.701Z,100905.57
2018-10-11T12:37:25.572Z,100906.92
2018-10-11T12:42:23.116Z,100907.33
2018-10-11T12:47:18.388Z,100915.94
2018-10-11T12:52:16.691Z,100917.41
2018-10-11T12:57:22.912Z,100915.65
2018-10-11T13:02:26.495Z,100925.67
2018-10-11T13:07:28.261Z,100926.27
2018-10-11T13:12:34.237Z,100935.02
2018-10-11T13:17:44.277Z,100934.64
2018-10-11T13:22:38.231Z,100930.38
2018-10-11T13:27:32.676Z,100927.27
2018-10-11T13:32:29.690Z,100919.86
2018-10-11T13:37:26.720Z,100920.50
2018-10-11T13:42:25.224Z,100924.13
2018-10-11T13:47:46.943Z,100934.05
2018-10-11T13:52:51.595Z,100927.92
2018-10-11T13:58:00.999Z,100934.65
2018-10-11T14:02:59.638Z,100927.97
2018-10-11T14:07:57.937Z,100922.98
2018-10-11T14:13:00.908Z,100918.77
2018-10-11T14:18:13.260Z,100910.20
2018-10-11T14:23:16.851Z,100905.25
2018-10-11T14:28:17.987Z,100894.45
2018-10-11T14:33:21.260Z,100893.81
2018-10-11T14:38:19.849Z,100901.13
2018-10-11T14:43:27.886Z,100892.22
2018-10-11T14:48:31.401Z,100892.22
2018-10-11T14:53:38.512Z,100891.86
2018-10-11T14:58:36.795Z,100882.76
2018-10-11T15:03:32.105Z,100879.78
2018-10-11T15:08:26.299Z,100880.55
2018-10-11T15:13:22.760Z,100878.72
2018-10-11T15:18:19.975Z,100880.19
2018-10-11T15:23:16.168Z,100877.85
2018-10-11T15:28:13.061Z,100877.46
2018-10-11T15:33:08.913Z,100869.84
2018-10-11T15:38:12.136Z,100872.06
2018-10-11T15:43:13.378Z,100881.94
2018-10-11T15:48:11.721Z,100880.34
2018-10-11T15:53:13.423Z,100881.90
2018-10-11T15:58:21.124Z,100882.36
2018-10-11T16:03:22.515Z,100881.61
2018-10-11T16:08:21.153Z,100889.37
2018-10-11T16:13:19.968Z,100888.20
2018-10-11T16:18:35.882Z,100892.52
2018-10-11T16:23:35.670Z,100902.34
2018-10-11T16:28:40.415Z,100899.06
2018-10-11T16:33:49.290Z,100905.75
2018-10-11T16:38:48.944Z,100908.67
2018-10-11T16:44:14.129Z,100914.52
2018-10-11T16:49:30.422Z,100919.13
2018-10-11T16:54:36.051Z,100930.61
2018-10-11T16:59:54.670Z,100937.61
2018-10-11T17:05:01.627Z,100949.91
2018-10-11T17:10:12.722Z,100952.97
2018-10-11T17:15:18.666Z,100956.28
2018-10-11T17:20:19.335Z,100959.69
2018-10-11T17:25:31.772Z,100959.80
2018-10-11T17:30:55.745Z,100964.41
2018-10-11T17:41:43.344Z,100971.66
2018-10-11T17:46:53.675Z,100981.12
2018-10-11T17:51:58.048Z,100988.41
2018-10-11T17:57:06.182Z,100993.64
2018-10-11T18:02:18.260Z,101004.46
2018-10-11T18:07:38.992Z,101010.38
2018-10-11T18:12:49.497Z,101005.25
2018-10-11T18:17:54.208Z,101004.58
2018-10-11T18:23:05.980Z,101008.59
2018-10-11T18:28:02.868Z,101002.69
2018-10-11T18:33:13.287Z,101010.44
2018-10-11T18:43:34.540Z,101021.18
2018-10-11T18:48:45.768Z,101027.13
2018-10-11T18:53:59.205Z,101036.19
2018-10-11T18:59:07.462Z,101031.93
2018-10-11T19:04:17.550Z,101024.05
2018-10-11T19:09:25.499Z,101031.91
2018-10-11T19:14:53.867Z,101026.08
2018-10-11T19:19:59.388Z,101041.38
2018-10-11T19:30:30.856Z,101035.55
2018-10-11T19:35:48.373Z,101038.92
2018-10-11T19:41:15.945Z,101030.37
2018-10-11T19:46:38.615Z,101028.36
2018-10-11T19:51:48.216Z,101032.36
2018-10-11T19:57:15.591Z,101043.64
2018-10-11T20:02:32.571Z,101042.53
2018-10-11T20:07:40.578Z,101050.59
2018-10-11T20:18:20.937Z,101055.23
2018-10-11T20:23:37.425Z,101054.67
2018-10-11T20:28:56.192Z,101050.12
2018-10-11T20:34:18.791Z,101049.41
2018-10-11T20:39:40.263Z,101042.88
2018-10-11T20:44:54.427Z,101044.23
2018-10-11T20:55:30.187Z,101046.15
2018-10-11T21:00:43.894Z,101052.40
2018-10-11T21:11:17.834Z,101055.41
2018-10-11T21:16:26.417Z,101064.88
2018-10-11T21:21:46.699Z,101058.17
2018-10-11T21:32:25.304Z,101054.80
2018-10-11T21:37:52.805Z,101049.98
2018-10-11T21:43:07.416Z,101043.58
2018-10-11T21:48:31.324Z,101035.28
2018-10-11T21:53:43.242Z,101032.33
2018-10-11T22:04:20.385Z,101015.63
2018-10-11T22:20:24.265Z,101024.71
2018-10-11T22:25:31.278Z,101033.64
2018-10-11T22:41:14.374Z,101084.13
2018-10-11T22:46:32.029Z,101092.59
2018-10-11T23:18:00.124Z,101140.42
2018-10-11T23:23:19.186Z,101149.09
2018-10-11T23:39:10.808Z,101151.72
2018-10-11T23:44:40.213Z,101151.41
